createdAt,value
2023-04-19T00:00:08.848Z,94969.41
2023-04-19T00:02:36.578Z,94958.47
2023-04-19T00:05:04.082Z,94950.00
2023-04-19T00:07:31.013Z,94956.78
2023-04-19T00:09:57.845Z,94959.88
2023-04-19T00:12:25.088Z,94960.91
2023-04-19T00:14:51.907Z,94958.84
2023-04-19T00:17:19.621Z,94943.41
2023-04-19T00:19:46.477Z,94945.88
2023-04-19T00:22:13.383Z,94953.25
2023-04-19T00:24:40.449Z,94948.28
2023-04-19T00:27:07.289Z,94939.38
2023-04-19T00:29:34.199Z,94944.69
2023-04-19T00:32:01.038Z,94949.94
2023-04-19T00:34:27.930Z,94940.94
2023-04-19T00:36:54.755Z,94949.47
2023-04-19T00:39:21.625Z,94942.13
2023-04-19T00:41:48.461Z,94943.88
2023-04-19T00:44:15.490Z,94948.78
2023-04-19T00:46:43.312Z,94933.25
2023-04-19T00:49:10.643Z,94941.19
2023-04-19T00:51:37.484Z,94930.09
2023-04-19T00:54:04.629Z,94941.66
2023-04-19T00:56:34.364Z,94932.50
2023-04-19T00:59:01.468Z,94935.88
2023-04-19T01:01:29.321Z,94926.38
2023-04-19T01:03:56.422Z,94942.47
2023-04-19T01:06:23.451Z,94935.34
2023-04-19T01:08:50.451Z,94929.38
2023-04-19T01:11:17.309Z,94910.31
2023-04-19T01:13:44.130Z,94905.47
2023-04-19T01:16:11.312Z,94916.53
2023-04-19T01:18:39.619Z,94926.72
2023-04-19T01:21:08.908Z,94914.88
2023-04-19T01:23:36.846Z,94927.13
2023-04-19T01:26:03.730Z,94911.38
2023-04-19T01:28:30.627Z,94916.78
2023-04-19T01:30:57.538Z,94914.97
2023-04-19T01:33:24.453Z,94891.09
2023-04-19T01:35:51.307Z,94903.44
2023-04-19T01:38:18.329Z,94899.84
2023-04-19T01:40:45.765Z,94903.75
2023-04-19T01:43:18.751Z,94907.34
2023-04-19T01:45:46.063Z,94900.25
2023-04-19T01:48:12.902Z,94903.75
2023-04-19T01:50:39.726Z,94890.09
2023-04-19T01:53:06.551Z,94884.88
2023-04-19T01:55:33.375Z,94887.63
2023-04-19T01:58:00.259Z,94892.06
2023-04-19T02:00:27.072Z,94875.31
2023-04-19T02:02:53.930Z,94873.72
2023-04-19T02:05:21.281Z,94879.50
2023-04-19T02:07:48.175Z,94871.09
2023-04-19T02:10:15.096Z,94875.44
2023-04-19T02:12:43.078Z,94872.75
2023-04-19T02:15:10.498Z,94861.66
2023-04-19T02:17:37.425Z,94862.25
2023-04-19T02:20:06.054Z,94872.06
2023-04-19T02:22:32.879Z,94870.94
2023-04-19T02:24:59.734Z,94857.03
2023-04-19T02:27:26.782Z,94873.34
2023-04-19T02:29:53.592Z,94866.44
2023-04-19T02:32:20.453Z,94868.13
2023-04-19T02:34:47.380Z,94861.22
2023-04-19T02:37:14.218Z,94859.78
2023-04-19T02:39:42.824Z,94861.25
2023-04-19T02:42:09.641Z,94869.38
2023-04-19T02:44:36.503Z,94852.72
2023-04-19T02:47:03.487Z,94862.75
2023-04-19T02:49:34.850Z,94864.94
2023-04-19T02:52:01.784Z,94854.75
2023-04-19T02:54:28.633Z,94858.03
2023-04-19T02:56:55.462Z,94849.50
2023-04-19T02:59:22.300Z,94859.38
2023-04-19T03:01:49.160Z,94862.03
2023-04-19T03:04:17.431Z,94849.28
2023-04-19T03:06:44.823Z,94850.84
2023-04-19T03:09:11.914Z,94837.00
2023-04-19T03:11:38.960Z,94848.47
2023-04-19T03:14:05.813Z,94846.19
2023-04-19T03:16:32.647Z,94830.94
2023-04-19T03:18:59.553Z,94848.06
2023-04-19T03:21:27.738Z,94840.88
2023-04-19T03:23:55.845Z,94828.94
2023-04-19T03:26:22.830Z,94831.03
2023-04-19T03:28:49.703Z,94836.78
2023-04-19T03:31:16.856Z,94845.38
2023-04-19T03:33:43.970Z,94847.47
2023-04-19T03:36:10.799Z,94842.91
2023-04-19T03:38:37.801Z,94840.84
2023-04-19T03:41:04.727Z,94837.25
2023-04-19T03:43:31.553Z,94831.69
2023-04-19T03:45:58.760Z,94823.22
2023-04-19T03:48:25.649Z,94821.28
2023-04-19T03:50:52.491Z,94830.41
2023-04-19T03:53:19.579Z,94834.78
2023-04-19T03:55:46.399Z,94828.41
2023-04-19T03:58:13.216Z,94819.56
2023-04-19T04:00:40.051Z,94821.94
2023-04-19T04:03:07.016Z,94829.03
2023-04-19T04:05:36.265Z,94825.88
2023-04-19T04:08:03.164Z,94823.94
2023-04-19T04:10:30.036Z,94823.59
2023-04-19T04:12:56.911Z,94819.97
2023-04-19T04:15:23.753Z,94831.00
2023-04-19T04:17:51.396Z,94832.13
2023-04-19T04:20:18.330Z,94830.78
2023-04-19T04:22:48.496Z,94823.53
2023-04-19T04:25:19.562Z,94833.41
2023-04-19T04:27:51.832Z,94831.47
2023-04-19T04:30:18.751Z,94820.31
2023-04-19T04:32:47.169Z,94828.50
2023-04-19T04:35:14.036Z,94826.56
2023-04-19T04:37:40.954Z,94830.84
2023-04-19T04:40:09.273Z,94825.88
2023-04-19T04:42:37.927Z,94825.53
2023-04-19T04:45:05.868Z,94824.81
2023-04-19T04:47:34.342Z,94823.00
2023-04-19T04:50:02.528Z,94825.16
2023-04-19T04:52:29.799Z,94828.97
2023-04-19T04:54:56.671Z,94831.59
2023-04-19T04:57:23.500Z,94826.22
2023-04-19T04:59:50.341Z,94821.94
2023-04-19T05:02:17.516Z,94824.03
2023-04-19T05:04:44.509Z,94837.00
2023-04-19T05:07:11.878Z,94831.97
2023-04-19T05:09:38.743Z,94839.63
2023-04-19T05:12:06.016Z,94831.66
2023-04-19T05:14:32.848Z,94835.78
2023-04-19T05:16:59.725Z,94838.41
2023-04-19T05:19:26.568Z,94834.69
2023-04-19T05:21:53.444Z,94833.13
2023-04-19T05:24:20.448Z,94827.34
2023-04-19T05:26:47.278Z,94831.75
2023-04-19T05:29:14.457Z,94830.72
2023-04-19T05:31:41.400Z,94830.63
2023-04-19T05:34:08.354Z,94829.44
2023-04-19T05:36:35.169Z,94832.41
2023-04-19T05:39:02.077Z,94829.44
2023-04-19T05:41:28.898Z,94829.66
2023-04-19T05:43:55.752Z,94833.09
2023-04-19T05:46:22.690Z,94842.00
2023-04-19T05:48:49.578Z,94837.72
2023-04-19T05:51:18.374Z,94842.34
2023-04-19T05:53:46.527Z,94837.38
2023-04-19T05:56:13.503Z,94841.56
2023-04-19T05:58:40.329Z,94840.41
2023-04-19T06:01:07.475Z,94838.31
2023-04-19T06:03:34.594Z,94845.09
2023-04-19T06:06:01.855Z,94831.50
2023-04-19T06:08:28.825Z,94832.47
2023-04-19T06:11:02.156Z,94843.03
2023-04-19T06:13:35.052Z,94842.31
2023-04-19T06:16:02.686Z,94845.66
2023-04-19T06:18:29.708Z,94849.47
2023-04-19T06:20:56.605Z,94850.22
2023-04-19T06:23:23.810Z,94855.25
2023-04-19T06:25:50.605Z,94844.31
2023-04-19T06:28:17.476Z,94857.13
2023-04-19T06:30:44.665Z,94856.31
2023-04-19T06:33:11.580Z,94856.81
2023-04-19T06:35:38.576Z,94847.53
2023-04-19T06:38:05.522Z,94859.13
2023-04-19T06:40:32.396Z,94851.78
2023-04-19T06:42:59.235Z,94855.91
2023-04-19T06:45:26.362Z,94858.91
2023-04-19T06:47:53.258Z,94863.97
2023-04-19T06:50:20.338Z,94856.28
2023-04-19T06:52:47.175Z,94858.81
2023-04-19T06:55:14.019Z,94861.25
2023-04-19T06:57:41.101Z,94866.06
2023-04-19T07:00:08.999Z,94857.91
2023-04-19T07:02:36.090Z,94858.53
2023-04-19T07:05:04.022Z,94859.09
2023-04-19T07:07:30.881Z,94857.63
2023-04-19T07:09:57.709Z,94857.66
2023-04-19T07:12:24.523Z,94858.53
2023-04-19T07:14:56.578Z,94857.75
2023-04-19T07:17:24.079Z,94861.75
2023-04-19T07:19:51.083Z,94851.75
2023-04-19T07:22:17.911Z,94854.31
2023-04-19T07:24:45.097Z,94845.38
2023-04-19T07:27:12.304Z,94856.47
2023-04-19T07:29:40.507Z,94854.88
2023-04-19T07:32:14.078Z,94846.94
2023-04-19T07:34:41.620Z,94849.63
2023-04-19T07:37:08.726Z,94854.56
2023-04-19T07:39:35.548Z,94852.38
2023-04-19T07:42:02.512Z,94848.47
2023-04-19T07:44:29.393Z,94846.84
2023-04-19T07:46:56.499Z,94846.19
2023-04-19T07:49:23.478Z,94839.91
2023-04-19T07:51:50.876Z,94846.34
2023-04-19T07:54:20.328Z,94849.13
2023-04-19T07:56:47.247Z,94838.91
2023-04-19T07:59:14.086Z,94844.03
2023-04-19T08:01:42.458Z,94842.63
2023-04-19T08:04:10.024Z,94844.78
2023-04-19T08:06:39.915Z,94838.13
2023-04-19T08:09:07.046Z,94837.97
2023-04-19T08:11:33.896Z,94829.94
2023-04-19T08:14:09.321Z,94844.25
2023-04-19T08:17:19.538Z,94837.63
2023-04-19T08:19:28.667Z,94839.13
2023-04-19T08:21:55.509Z,94846.84
2023-04-19T08:24:22.374Z,94838.75
2023-04-19T08:26:53.938Z,94840.78
2023-04-19T08:29:22.452Z,94838.53
2023-04-19T08:31:49.730Z,94840.84
2023-04-19T08:34:16.617Z,94839.78
2023-04-19T08:36:51.820Z,94837.97
2023-04-19T08:39:32.379Z,94838.72
2023-04-19T08:42:18.376Z,94845.59
2023-04-19T08:45:23.505Z,94850.13
2023-04-19T08:47:58.689Z,94835.75
2023-04-19T08:50:34.404Z,94843.88
2023-04-19T08:53:21.035Z,94826.72
2023-04-19T08:56:06.828Z,94832.97
2023-04-19T08:58:54.834Z,94829.25
2023-04-19T09:01:33.864Z,94819.03
2023-04-19T09:04:26.434Z,94823.66
2023-04-19T09:06:53.383Z,94831.28
2023-04-19T09:09:36.970Z,94831.94
2023-04-19T09:12:18.300Z,94823.13
2023-04-19T09:15:00.467Z,94819.22
2023-04-19T09:17:28.607Z,94814.63
2023-04-19T09:19:55.673Z,94819.88
2023-04-19T09:22:26.397Z,94819.63
2023-04-19T09:25:30.653Z,94804.09
2023-04-19T09:27:40.520Z,94810.72
2023-04-19T09:30:14.802Z,94817.31
2023-04-19T09:32:49.602Z,94807.16
2023-04-19T09:35:16.709Z,94802.28
2023-04-19T09:40:27.138Z,94810.50
2023-04-19T09:43:08.886Z,94799.19
2023-04-19T09:45:43.768Z,94790.47
2023-04-19T09:48:12.218Z,94784.41
2023-04-19T09:51:01.985Z,94788.34
2023-04-19T09:53:35.527Z,94791.47
2023-04-19T09:56:03.825Z,94782.56
2023-04-19T09:58:46.101Z,94779.25
2023-04-19T10:01:17.107Z,94778.91
2023-04-19T10:03:50.406Z,94779.25
2023-04-19T10:08:51.410Z,94772.34
2023-04-19T10:11:22.178Z,94766.41
2023-04-19T10:13:51.234Z,94765.25
2023-04-19T10:16:20.225Z,94767.53
2023-04-19T10:18:50.484Z,94759.47
2023-04-19T10:21:19.420Z,94758.28
2023-04-19T10:23:47.411Z,94765.84
2023-04-19T10:26:14.286Z,94768.13
2023-04-19T10:28:42.745Z,94767.13
2023-04-19T10:31:16.334Z,94763.03
2023-04-19T10:33:43.356Z,94763.06
2023-04-19T10:36:14.662Z,94751.47
2023-04-19T10:38:49.675Z,94749.47
2023-04-19T10:41:19.254Z,94746.56
2023-04-19T10:43:55.366Z,94745.41
2023-04-19T10:46:22.258Z,94744.00
2023-04-19T10:49:00.620Z,94749.16
2023-04-19T10:51:35.835Z,94746.38
2023-04-19T10:54:07.717Z,94738.03
2023-04-19T10:56:34.618Z,94737.31
2023-04-19T10:59:01.539Z,94722.44
2023-04-19T11:01:46.177Z,94716.72
2023-04-19T11:04:18.217Z,94709.78
2023-04-19T11:06:51.613Z,94706.59
2023-04-19T11:09:41.782Z,94701.16
2023-04-19T11:12:12.219Z,94699.25
2023-04-19T11:14:47.694Z,94687.88
2023-04-19T11:17:25.948Z,94689.03
2023-04-19T11:20:03.404Z,94688.41
2023-04-19T11:22:30.158Z,94682.75
2023-04-19T11:24:57.066Z,94683.16
2023-04-19T11:27:23.924Z,94689.16
2023-04-19T11:29:50.734Z,94684.81
2023-04-19T11:32:21.711Z,94674.09
2023-04-19T11:34:48.560Z,94686.66
2023-04-19T11:37:15.364Z,94681.66
2023-04-19T11:39:47.565Z,94678.47
2023-04-19T11:42:21.620Z,94668.25
2023-04-19T11:44:52.481Z,94677.25
2023-04-19T11:47:20.490Z,94672.59
2023-04-19T11:49:47.384Z,94665.38
2023-04-19T11:52:23.198Z,94662.50
2023-04-19T11:54:53.811Z,94675.13
2023-04-19T11:57:31.653Z,94654.03
2023-04-19T12:00:12.527Z,94664.22
2023-04-19T12:02:44.034Z,94659.72
2023-04-19T12:05:14.548Z,94652.53
2023-04-19T12:08:08.619Z,94653.66
2023-04-19T12:10:36.339Z,94652.13
2023-04-19T12:13:18.207Z,94642.78
2023-04-19T12:15:47.118Z,94637.69
2023-04-19T12:18:14.844Z,94634.31
2023-04-19T12:20:49.360Z,94638.47
2023-04-19T12:23:18.202Z,94623.50
2023-04-19T12:25:50.064Z,94633.31
2023-04-19T12:28:17.286Z,94625.06
2023-04-19T12:30:44.333Z,94618.84
2023-04-19T12:33:11.862Z,94615.75
2023-04-19T12:35:39.359Z,94615.03
2023-04-19T12:38:06.303Z,94612.84
2023-04-19T12:40:33.713Z,94611.84
2023-04-19T12:43:00.609Z,94612.03
2023-04-19T12:45:27.993Z,94601.41
2023-04-19T12:47:54.911Z,94606.34
2023-04-19T12:50:21.970Z,94600.00
2023-04-19T12:52:48.868Z,94606.19
2023-04-19T12:55:15.745Z,94611.97
2023-04-19T12:57:42.687Z,94606.25
2023-04-19T13:00:11.045Z,94611.88
2023-04-19T13:02:38.597Z,94614.28
2023-04-19T13:05:06.637Z,94612.50
2023-04-19T13:07:33.520Z,94612.31
2023-04-19T13:10:00.602Z,94606.72
2023-04-19T13:12:28.615Z,94611.94
2023-04-19T13:14:55.478Z,94599.53
2023-04-19T13:17:22.387Z,94591.47
2023-04-19T13:19:49.284Z,94591.72
2023-04-19T13:22:16.146Z,94582.72
2023-04-19T13:24:43.028Z,94583.56
2023-04-19T13:27:09.955Z,94584.44
2023-04-19T13:29:37.312Z,94588.72
2023-04-19T13:32:07.797Z,94578.41
2023-04-19T13:34:35.523Z,94585.13
2023-04-19T13:37:02.379Z,94573.34
2023-04-19T13:39:29.222Z,94575.44
2023-04-19T13:41:56.131Z,94567.09
2023-04-19T13:44:23.222Z,94567.69
2023-04-19T13:46:50.209Z,94568.63
2023-04-19T13:49:19.240Z,94559.34
2023-04-19T13:51:50.840Z,94563.81
2023-04-19T13:54:19.587Z,94565.88
2023-04-19T13:56:48.647Z,94554.91
2023-04-19T13:59:16.928Z,94551.78
2023-04-19T14:01:43.730Z,94560.97
2023-04-19T14:04:10.911Z,94558.88
2023-04-19T14:06:38.071Z,94555.25
2023-04-19T14:09:04.933Z,94544.69
2023-04-19T14:11:31.818Z,94552.91
2023-04-19T14:13:58.651Z,94555.53
2023-04-19T14:16:25.683Z,94549.75
2023-04-19T14:18:52.902Z,94546.13
2023-04-19T14:21:20.005Z,94535.03
2023-04-19T14:23:47.008Z,94547.56
2023-04-19T14:26:14.719Z,94542.66
2023-04-19T14:28:41.592Z,94544.03
2023-04-19T14:31:08.429Z,94522.31
2023-04-19T14:33:35.500Z,94536.84
2023-04-19T14:36:02.378Z,94533.88
2023-04-19T14:38:29.226Z,94541.06
2023-04-19T14:40:56.486Z,94538.19
2023-04-19T14:43:23.450Z,94529.13
2023-04-19T14:45:52.981Z,94539.72
2023-04-19T14:48:22.064Z,94543.56
2023-04-19T14:50:49.635Z,94540.88
2023-04-19T14:53:16.579Z,94534.75
2023-04-19T14:55:43.557Z,94537.22
2023-04-19T14:58:10.420Z,94538.72
2023-04-19T15:00:37.311Z,94544.28
2023-04-19T15:03:04.497Z,94533.84
2023-04-19T15:05:35.590Z,94541.34
2023-04-19T15:08:02.652Z,94544.66
2023-04-19T15:10:29.561Z,94540.03
2023-04-19T15:12:56.429Z,94538.91
2023-04-19T15:15:23.295Z,94551.53
2023-04-19T15:17:50.241Z,94542.41
2023-04-19T15:20:17.342Z,94558.34
2023-04-19T15:22:44.183Z,94551.00
2023-04-19T15:25:11.085Z,94533.63
2023-04-19T15:27:37.972Z,94551.25
2023-04-19T15:30:06.462Z,94550.06
2023-04-19T15:32:36.914Z,94543.16
2023-04-19T15:35:07.292Z,94536.75
2023-04-19T15:37:34.130Z,94541.50
2023-04-19T15:40:01.066Z,94544.44
2023-04-19T15:42:27.890Z,94541.53
2023-04-19T15:44:54.818Z,94553.72
2023-04-19T15:47:21.808Z,94554.19
2023-04-19T15:49:48.671Z,94556.47
2023-04-19T15:52:15.495Z,94552.22
2023-04-19T15:54:42.348Z,94560.09
2023-04-19T15:57:09.162Z,94563.91
2023-04-19T15:59:36.089Z,94553.75
2023-04-19T16:02:03.044Z,94555.75
2023-04-19T16:04:31.341Z,94559.19
2023-04-19T16:06:59.479Z,94574.31
2023-04-19T16:09:26.620Z,94568.38
2023-04-19T16:11:53.524Z,94570.84
2023-04-19T16:14:20.380Z,94579.84
2023-04-19T16:16:47.978Z,94577.19
2023-04-19T16:19:15.098Z,94585.69
2023-04-19T16:21:42.126Z,94587.34
2023-04-19T16:24:08.973Z,94581.69
2023-04-19T16:26:35.820Z,94586.06
2023-04-19T16:29:02.631Z,94588.34
2023-04-19T16:31:29.560Z,94581.66
2023-04-19T16:33:56.434Z,94599.34
2023-04-19T16:36:23.267Z,94596.75
2023-04-19T16:38:50.082Z,94590.50
2023-04-19T16:41:17.415Z,94583.28
2023-04-19T16:43:44.575Z,94597.31
2023-04-19T16:46:11.440Z,94595.03
2023-04-19T16:48:38.315Z,94594.38
2023-04-19T16:51:05.292Z,94598.94
2023-04-19T16:53:32.402Z,94592.03
2023-04-19T16:56:00.498Z,94591.00
2023-04-19T16:58:27.342Z,94591.94
2023-04-19T17:00:55.261Z,94597.19
2023-04-19T17:03:22.429Z,94597.81
2023-04-19T17:05:49.391Z,94591.78
2023-04-19T17:08:16.333Z,94589.75
2023-04-19T17:10:43.131Z,94588.56
2023-04-19T17:13:09.998Z,94575.75
2023-04-19T17:15:38.739Z,94581.16
2023-04-19T17:18:05.925Z,94587.63
2023-04-19T17:20:32.902Z,94593.72
2023-04-19T17:22:59.800Z,94572.38
2023-04-19T17:25:26.635Z,94577.38
2023-04-19T17:27:53.497Z,94574.91
2023-04-19T17:30:21.027Z,94576.63
2023-04-19T17:32:47.909Z,94562.56
2023-04-19T17:35:15.561Z,94576.53
2023-04-19T17:37:43.791Z,94563.63
2023-04-19T17:40:11.213Z,94572.13
2023-04-19T17:42:38.198Z,94565.84
2023-04-19T17:45:10.228Z,94573.25
2023-04-19T17:47:40.965Z,94576.34
2023-04-19T17:50:13.505Z,94573.41
2023-04-19T17:52:40.542Z,94566.16
2023-04-19T17:55:08.227Z,94573.72
2023-04-19T17:57:35.476Z,94554.06
2023-04-19T18:00:06.750Z,94574.09
2023-04-19T18:03:02.645Z,94563.75
2023-04-19T18:05:29.614Z,94566.91
2023-04-19T18:07:56.764Z,94560.31
2023-04-19T18:10:23.606Z,94557.53
2023-04-19T18:12:50.815Z,94570.47
2023-04-19T18:15:17.751Z,94566.41
2023-04-19T18:17:44.621Z,94557.22
2023-04-19T18:20:13.695Z,94560.31
2023-04-19T18:22:40.824Z,94551.81
2023-04-19T18:25:08.228Z,94544.63
2023-04-19T18:27:35.322Z,94551.47
2023-04-19T18:30:04.164Z,94555.09
2023-04-19T18:32:32.192Z,94552.91
2023-04-19T18:34:59.075Z,94547.81
2023-04-19T18:37:25.932Z,94543.88
2023-04-19T18:39:52.749Z,94551.91
2023-04-19T18:42:19.608Z,94563.19
2023-04-19T18:44:53.656Z,94559.75
2023-04-19T18:47:21.532Z,94558.63
2023-04-19T18:50:02.874Z,94570.06
2023-04-19T18:52:31.907Z,94570.06
2023-04-19T18:54:59.015Z,94565.16
2023-04-19T18:57:27.632Z,94569.03
2023-04-19T18:59:56.616Z,94566.44
2023-04-19T19:02:23.607Z,94564.09
2023-04-19T19:04:57.829Z,94565.91
2023-04-19T19:10:06.315Z,94572.94
2023-04-19T19:12:43.757Z,94567.03
2023-04-19T19:15:10.937Z,94575.19
2023-04-19T19:17:38.157Z,94565.28
2023-04-19T19:20:06.956Z,94576.13
2023-04-19T19:22:34.383Z,94577.91
2023-04-19T19:25:01.369Z,94571.47
2023-04-19T19:27:28.352Z,94584.56
2023-04-19T19:29:55.453Z,94567.16
2023-04-19T19:32:22.467Z,94592.13
2023-04-19T19:34:56.558Z,94588.81
2023-04-19T19:37:27.761Z,94589.78
2023-04-19T19:39:56.469Z,94586.50
2023-04-19T19:42:24.282Z,94594.72
2023-04-19T19:44:57.006Z,94593.25
2023-04-19T19:47:25.291Z,94588.22
2023-04-19T19:50:21.346Z,94594.97
2023-04-19T19:52:39.178Z,94590.84
2023-04-19T19:55:08.653Z,94587.72
2023-04-19T20:00:28.114Z,94579.72
2023-04-19T20:02:58.962Z,94583.16
2023-04-19T20:05:26.659Z,94593.63
2023-04-19T20:08:14.578Z,94591.38
2023-04-19T20:10:43.095Z,94590.25
2023-04-19T20:13:12.011Z,94584.56
2023-04-19T20:15:39.971Z,94591.66
2023-04-19T20:18:08.292Z,94586.59
2023-04-19T20:20:36.711Z,94583.22
2023-04-19T20:23:03.677Z,94582.94
2023-04-19T20:25:32.688Z,94573.34
2023-04-19T20:28:02.505Z,94575.31
2023-04-19T20:30:29.344Z,94578.72
2023-04-19T20:32:56.291Z,94566.56
2023-04-19T20:35:23.404Z,94576.28
2023-04-19T20:37:51.083Z,94559.41
2023-04-19T20:40:18.942Z,94570.53
2023-04-19T20:42:45.772Z,94567.91
2023-04-19T20:45:16.016Z,94567.16
2023-04-19T20:47:43.269Z,94560.88
2023-04-19T20:50:10.796Z,94564.41
2023-04-19T20:52:37.843Z,94559.69
2023-04-19T20:55:05.179Z,94558.72
2023-04-19T20:57:32.028Z,94559.41
2023-04-19T20:59:59.617Z,94563.63
2023-04-19T21:02:26.703Z,94554.63
2023-04-19T21:04:53.762Z,94553.63
2023-04-19T21:07:20.710Z,94560.00
2023-04-19T21:09:47.536Z,94549.47
2023-04-19T21:12:14.380Z,94552.00
2023-04-19T21:14:41.290Z,94545.41
2023-04-19T21:17:08.098Z,94552.28
2023-04-19T21:19:37.049Z,94547.19
2023-04-19T21:22:03.889Z,94549.06
2023-04-19T21:24:30.738Z,94557.00
2023-04-19T21:26:57.944Z,94553.03
2023-04-19T21:29:25.496Z,94554.97
2023-04-19T21:31:52.387Z,94555.50
2023-04-19T21:34:19.264Z,94559.38
2023-04-19T21:36:46.084Z,94537.13
2023-04-19T21:39:12.973Z,94551.84
2023-04-19T21:41:39.825Z,94557.78
2023-04-19T21:44:07.230Z,94542.19
2023-04-19T21:46:35.123Z,94544.81
2023-04-19T21:49:02.052Z,94537.81
2023-04-19T21:51:28.871Z,94543.44
2023-04-19T21:53:55.730Z,94530.25
2023-04-19T21:56:22.560Z,94545.34
2023-04-19T21:58:49.441Z,94550.16
2023-04-19T22:03:43.493Z,94552.31
2023-04-19T22:06:10.455Z,94540.53
2023-04-19T22:08:37.323Z,94547.00
2023-04-19T22:11:04.393Z,94547.88
2023-04-19T22:13:33.663Z,94548.66
2023-04-19T22:16:02.540Z,94534.13
2023-04-19T22:18:29.455Z,94521.91
2023-04-19T22:20:56.267Z,94532.19
2023-04-19T22:23:23.122Z,94529.16
2023-04-19T22:25:50.097Z,94528.06
2023-04-19T22:28:16.954Z,94513.81
2023-04-19T22:30:43.821Z,94506.97
2023-04-19T22:33:10.901Z,94517.88
2023-04-19T22:35:37.738Z,94517.88
2023-04-19T22:38:04.582Z,94516.47
2023-04-19T22:40:31.406Z,94511.84
2023-04-19T22:42:58.254Z,94512.97
2023-04-19T22:45:25.128Z,94520.88
2023-04-19T22:47:51.977Z,94514.84
2023-04-19T22:50:19.153Z,94513.06
2023-04-19T22:52:46.063Z,94504.72
2023-04-19T22:55:13.009Z,94509.94
2023-04-19T22:57:39.846Z,94498.09
2023-04-19T23:00:10.657Z,94489.72
2023-04-19T23:02:38.825Z,94482.75
2023-04-19T23:05:06.818Z,94485.19
2023-04-19T23:07:34.017Z,94485.72
2023-04-19T23:10:01.254Z,94482.97
2023-04-19T23:12:31.287Z,94477.34
2023-04-19T23:14:58.575Z,94469.53
2023-04-19T23:17:25.772Z,94469.25
2023-04-19T23:19:52.613Z,94466.03
2023-04-19T23:22:19.534Z,94470.88
2023-04-19T23:24:46.480Z,94452.91
2023-04-19T23:27:13.357Z,94459.38
2023-04-19T23:29:40.234Z,94464.28
2023-04-19T23:32:07.096Z,94449.53
2023-04-19T23:34:33.903Z,94452.50
2023-04-19T23:37:00.909Z,94457.72
2023-04-19T23:39:27.743Z,94436.28
2023-04-19T23:41:54.628Z,94430.56
2023-04-19T23:44:21.675Z,94415.75
2023-04-19T23:46:48.578Z,94425.09
2023-04-19T23:49:15.672Z,94411.34
2023-04-19T23:51:42.855Z,94389.94
2023-04-19T23:54:09.683Z,94396.78
2023-04-19T23:56:36.518Z,94387.34
2023-04-19T23:59:03.509Z,94396.38
